createdAt,value
2022-10-25T00:01:52.050Z,12.70
2022-10-25T00:06:49.874Z,12.70
2022-10-25T00:09:18.054Z,12.80
2022-10-25T00:11:46.318Z,12.80
2022-10-25T00:14:18.755Z,12.80
2022-10-25T00:16:47.095Z,12.80
2022-10-25T00:19:15.319Z,12.70
2022-10-25T00:21:44.865Z,12.70
2022-10-25T00:24:13.934Z,12.70
2022-10-25T00:26:42.854Z,12.70
2022-10-25T00:29:12.171Z,12.70
2022-10-25T00:31:40.440Z,12.60
2022-10-25T00:34:08.563Z,12.70
2022-10-25T00:36:36.712Z,12.70
2022-10-25T00:39:06.289Z,12.60
2022-10-25T00:41:36.218Z,12.70
2022-10-25T00:44:41.620Z,12.70
2022-10-25T00:47:18.975Z,12.70
2022-10-25T00:49:50.533Z,12.70
2022-10-25T00:52:18.768Z,12.70
2022-10-25T00:54:53.316Z,12.60
2022-10-25T00:57:26.284Z,12.70
2022-10-25T00:59:54.889Z,12.60
2022-10-25T01:02:24.363Z,12.60
2022-10-25T01:04:53.509Z,12.60
2022-10-25T01:07:21.700Z,12.60
2022-10-25T01:09:52.424Z,12.60
2022-10-25T01:12:20.569Z,12.60
2022-10-25T01:14:51.700Z,12.60
2022-10-25T01:17:25.858Z,12.60
2022-10-25T01:20:29.814Z,12.60
2022-10-25T01:23:08.978Z,12.60
2022-10-25T01:26:13.902Z,12.50
2022-10-25T01:28:55.756Z,12.60
2022-10-25T01:31:36.333Z,12.60
2022-10-25T01:34:12.274Z,12.60
2022-10-25T01:36:46.778Z,12.50
2022-10-25T01:39:21.869Z,12.50
2022-10-25T01:41:58.169Z,12.50
2022-10-25T01:47:09.686Z,12.50
2022-10-25T01:49:42.963Z,12.50
2022-10-25T01:52:11.118Z,12.50
2022-10-25T01:54:39.870Z,12.50
2022-10-25T01:57:44.190Z,12.50
2022-10-25T02:00:14.978Z,12.50
2022-10-25T02:02:59.781Z,12.50
2022-10-25T02:05:34.444Z,12.50
2022-10-25T02:08:09.026Z,12.50
2022-10-25T02:10:41.890Z,12.50
2022-10-25T02:13:17.890Z,12.50
2022-10-25T02:15:53.614Z,12.50
2022-10-25T02:18:27.237Z,12.50
2022-10-25T02:20:56.565Z,12.50
2022-10-25T02:23:26.177Z,12.50
2022-10-25T02:25:55.445Z,12.50
2022-10-25T02:28:28.270Z,12.50
2022-10-25T02:30:58.339Z,12.50
2022-10-25T02:33:28.107Z,12.50
2022-10-25T02:36:13.662Z,12.50
2022-10-25T02:38:42.905Z,12.50
2022-10-25T02:41:11.315Z,12.50
2022-10-25T02:43:39.458Z,12.60
2022-10-25T02:46:08.781Z,12.60
2022-10-25T02:48:38.674Z,12.60
2022-10-25T02:51:08.158Z,12.60
2022-10-25T02:53:37.111Z,12.60
2022-10-25T02:56:07.444Z,12.60
2022-10-25T02:58:38.491Z,12.50
2022-10-25T03:01:07.964Z,12.50
2022-10-25T03:03:36.586Z,12.50
2022-10-25T03:06:07.308Z,12.50
2022-10-25T03:08:35.747Z,12.50
2022-10-25T03:11:04.368Z,12.50
2022-10-25T03:13:32.599Z,12.50
2022-10-25T03:16:00.862Z,12.50
2022-10-25T03:18:29.095Z,12.50
2022-10-25T03:20:58.768Z,12.50
2022-10-25T03:23:28.809Z,12.50
2022-10-25T03:25:58.010Z,12.50
2022-10-25T03:28:27.491Z,12.50
2022-10-25T03:30:56.045Z,12.50
2022-10-25T03:33:24.679Z,12.40
2022-10-25T03:35:53.009Z,12.50
2022-10-25T03:38:21.229Z,12.40
2022-10-25T03:40:50.922Z,12.50
2022-10-25T03:43:19.064Z,12.40
2022-10-25T03:45:47.197Z,12.40
2022-10-25T03:48:15.332Z,12.40
2022-10-25T03:50:43.617Z,12.40
2022-10-25T03:53:12.350Z,12.40
2022-10-25T03:55:40.487Z,12.40
2022-10-25T03:58:10.104Z,12.40
2022-10-25T04:00:38.844Z,12.40
2022-10-25T04:05:40.222Z,12.30
2022-10-25T04:08:08.425Z,12.30
2022-10-25T04:10:36.648Z,12.30
2022-10-25T04:13:04.928Z,12.30
2022-10-25T04:15:34.508Z,12.30
2022-10-25T04:18:02.609Z,12.30
2022-10-25T04:20:30.736Z,12.30
2022-10-25T04:22:59.454Z,12.30
2022-10-25T04:25:29.802Z,12.40
2022-10-25T04:28:00.303Z,12.30
2022-10-25T04:30:28.501Z,12.30
2022-10-25T04:32:59.717Z,12.20
2022-10-25T04:35:27.858Z,12.20
2022-10-25T04:37:58.495Z,12.20
2022-10-25T04:40:26.676Z,12.20
2022-10-25T04:42:54.837Z,12.20
2022-10-25T04:45:22.966Z,12.10
2022-10-25T04:47:51.138Z,12.10
2022-10-25T04:50:20.885Z,12.10
2022-10-25T04:52:49.343Z,12.10
2022-10-25T04:55:17.737Z,12.10
2022-10-25T04:57:45.954Z,12.10
2022-10-25T05:00:15.070Z,12.10
2022-10-25T05:02:43.255Z,12.10
2022-10-25T05:05:11.438Z,12.00
2022-10-25T05:07:41.046Z,12.10
2022-10-25T05:10:09.781Z,12.10
2022-10-25T05:12:38.345Z,12.10
2022-10-25T05:15:07.611Z,12.10
2022-10-25T05:17:35.862Z,12.10
2022-10-25T05:20:04.328Z,12.10
2022-10-25T05:22:32.660Z,12.20
2022-10-25T05:25:02.190Z,12.20
2022-10-25T05:27:30.313Z,12.20
2022-10-25T05:29:58.427Z,12.30
2022-10-25T05:32:26.575Z,12.30
2022-10-25T05:34:54.688Z,12.30
2022-10-25T05:37:22.788Z,12.30
2022-10-25T05:39:50.972Z,12.30
2022-10-25T05:42:20.594Z,12.30
2022-10-25T05:44:48.778Z,12.30
2022-10-25T05:47:16.944Z,12.30
2022-10-25T05:49:45.073Z,12.30
2022-10-25T05:52:13.549Z,12.30
2022-10-25T05:54:41.682Z,12.30
2022-10-25T05:57:10.143Z,12.30
2022-10-25T05:59:39.717Z,12.30
2022-10-25T06:02:10.414Z,12.20
2022-10-25T06:04:38.627Z,12.20
2022-10-25T06:07:06.846Z,12.10
2022-10-25T06:09:35.026Z,12.10
2022-10-25T06:12:05.019Z,12.10
2022-10-25T06:14:35.670Z,12.10
2022-10-25T06:17:05.236Z,12.00
2022-10-25T06:19:33.376Z,12.00
2022-10-25T06:22:01.957Z,12.00
2022-10-25T06:24:30.101Z,12.00
2022-10-25T06:26:58.297Z,12.00
2022-10-25T06:29:26.551Z,12.00
2022-10-25T06:31:54.758Z,12.00
2022-10-25T06:34:24.404Z,12.10
2022-10-25T06:36:52.520Z,12.10
2022-10-25T06:39:20.842Z,12.20
2022-10-25T06:41:49.100Z,12.20
2022-10-25T06:44:17.427Z,12.20
2022-10-25T06:47:16.025Z,12.20
2022-10-25T06:49:35.362Z,12.20
2022-10-25T06:52:03.507Z,12.30
2022-10-25T06:54:31.780Z,12.40
2022-10-25T06:56:59.923Z,12.50
2022-10-25T06:59:28.112Z,12.60
2022-10-25T07:01:57.324Z,12.70
2022-10-25T07:04:25.704Z,12.80
2022-10-25T07:06:55.439Z,12.90
2022-10-25T07:09:23.903Z,13.00
2022-10-25T07:11:52.125Z,13.00
2022-10-25T07:14:20.374Z,13.10
2022-10-25T07:16:48.492Z,13.20
2022-10-25T07:19:16.657Z,13.20
2022-10-25T07:21:45.184Z,13.20
2022-10-25T07:24:14.992Z,13.20
2022-10-25T07:26:43.428Z,13.20
2022-10-25T07:29:11.804Z,13.20
2022-10-25T07:31:43.216Z,13.20
2022-10-25T07:34:13.416Z,13.20
2022-10-25T07:36:41.990Z,13.20
2022-10-25T07:39:10.333Z,13.20
2022-10-25T07:41:39.998Z,13.20
2022-10-25T07:44:12.979Z,13.20
2022-10-25T07:46:44.472Z,13.10
2022-10-25T07:49:12.858Z,13.10
2022-10-25T07:51:41.075Z,13.10
2022-10-25T07:54:09.494Z,13.10
2022-10-25T07:56:39.117Z,13.20
2022-10-25T07:59:07.385Z,13.20
2022-10-25T08:01:36.771Z,13.20
2022-10-25T08:04:05.291Z,13.20
2022-10-25T08:06:33.446Z,13.30
2022-10-25T08:09:09.757Z,13.30
2022-10-25T08:11:50.051Z,13.30
2022-10-25T08:14:18.248Z,13.40
2022-10-25T08:16:46.548Z,13.40
2022-10-25T08:19:14.782Z,13.40
2022-10-25T08:21:43.652Z,13.40
2022-10-25T08:24:12.130Z,13.40
2022-10-25T08:26:40.296Z,13.50
2022-10-25T08:29:09.976Z,13.60
2022-10-25T08:31:38.128Z,13.70
2022-10-25T08:34:06.350Z,13.80
2022-10-25T08:36:34.632Z,13.80
2022-10-25T08:39:02.832Z,13.90
2022-10-25T08:41:44.318Z,13.90
2022-10-25T08:44:20.258Z,13.90
2022-10-25T08:47:00.397Z,14.10
2022-10-25T08:49:35.544Z,14.30
2022-10-25T08:52:06.277Z,14.40
2022-10-25T08:54:38.805Z,14.40
2022-10-25T08:57:16.355Z,14.40
2022-10-25T08:59:50.890Z,14.40
2022-10-25T09:02:24.958Z,14.30
2022-10-25T09:04:54.003Z,14.20
2022-10-25T09:07:50.440Z,14.20
2022-10-25T09:10:30.987Z,14.20
2022-10-25T09:13:09.810Z,14.20
2022-10-25T09:15:54.727Z,14.20
2022-10-25T09:18:31.767Z,14.30
2022-10-25T09:21:07.661Z,14.40
2022-10-25T09:23:38.524Z,14.50
2022-10-25T09:26:18.774Z,14.60
2022-10-25T09:28:53.224Z,14.80
2022-10-25T09:31:24.704Z,15.00
2022-10-25T09:34:01.611Z,15.10
2022-10-25T09:36:38.213Z,15.10
2022-10-25T09:39:16.554Z,15.10
2022-10-25T09:41:47.867Z,15.10
2022-10-25T09:44:26.656Z,15.20
2022-10-25T09:46:59.454Z,15.30
2022-10-25T09:49:34.140Z,15.30
2022-10-25T09:52:08.296Z,15.40
2022-10-25T09:54:41.206Z,15.30
2022-10-25T09:57:09.607Z,15.30
2022-10-25T09:59:37.859Z,15.20
2022-10-25T10:02:11.530Z,15.10
2022-10-25T10:04:40.456Z,15.10
2022-10-25T10:07:15.470Z,15.10
2022-10-25T10:09:46.053Z,15.10
2022-10-25T10:12:21.530Z,15.10
2022-10-25T10:14:57.314Z,15.00
2022-10-25T10:17:28.489Z,14.90
2022-10-25T10:20:15.329Z,14.80
2022-10-25T10:25:27.984Z,14.70
2022-10-25T10:27:58.409Z,14.60
2022-10-25T10:30:29.847Z,14.60
2022-10-25T10:33:01.842Z,14.60
2022-10-25T10:35:33.658Z,14.60
2022-10-25T10:38:22.399Z,14.60
2022-10-25T10:40:51.887Z,14.70
2022-10-25T10:43:30.852Z,14.80
2022-10-25T10:46:04.458Z,14.80
2022-10-25T10:48:41.928Z,14.90
2022-10-25T10:51:31.601Z,14.90
2022-10-25T10:54:12.805Z,15.00
2022-10-25T10:56:41.197Z,15.00
2022-10-25T10:59:27.938Z,15.10
2022-10-25T11:01:56.981Z,15.20
2022-10-25T11:04:26.641Z,15.20
2022-10-25T11:06:54.891Z,15.40
2022-10-25T11:09:26.926Z,15.50
2022-10-25T11:12:11.890Z,15.60
2022-10-25T11:14:40.080Z,15.60
2022-10-25T11:17:13.523Z,15.70
2022-10-25T11:20:03.571Z,15.70
2022-10-25T11:22:48.400Z,15.80
2022-10-25T11:25:25.547Z,15.90
2022-10-25T11:28:07.488Z,16.00
2022-10-25T11:30:41.802Z,16.20
2022-10-25T11:33:38.703Z,16.30
2022-10-25T11:36:46.290Z,16.40
2022-10-25T11:39:28.566Z,16.50
2022-10-25T11:42:04.923Z,16.50
2022-10-25T11:44:50.220Z,16.30
2022-10-25T11:47:29.962Z,16.20
2022-10-25T11:50:11.827Z,16.20
2022-10-25T11:52:59.212Z,16.20
2022-10-25T11:55:35.852Z,16.20
2022-10-25T11:58:19.369Z,16.10
2022-10-25T12:00:57.352Z,16.10
2022-10-25T12:03:43.564Z,16.10
2022-10-25T12:06:23.092Z,16.00
2022-10-25T12:09:03.046Z,16.00
2022-10-25T12:11:34.952Z,16.00
2022-10-25T12:14:08.435Z,16.00
2022-10-25T12:16:37.619Z,16.00
2022-10-25T12:19:12.454Z,16.00
2022-10-25T12:21:46.089Z,16.00
2022-10-25T12:24:21.729Z,16.00
2022-10-25T12:26:53.989Z,16.10
2022-10-25T12:29:26.297Z,16.10
2022-10-25T12:32:00.381Z,16.20
2022-10-25T12:34:43.104Z,16.20
2022-10-25T12:37:19.096Z,16.20
2022-10-25T12:39:49.133Z,16.20
2022-10-25T12:42:21.466Z,16.30
2022-10-25T12:45:18.688Z,16.30
2022-10-25T12:47:59.006Z,16.20
2022-10-25T12:50:50.373Z,16.20
2022-10-25T12:53:49.094Z,16.30
2022-10-25T12:56:30.695Z,16.40
2022-10-25T12:59:08.962Z,16.50
2022-10-25T13:01:51.270Z,16.50
2022-10-25T13:04:33.164Z,16.40
2022-10-25T13:07:04.237Z,16.30
2022-10-25T13:09:35.092Z,16.20
2022-10-25T13:12:08.327Z,16.00
2022-10-25T13:14:39.630Z,15.90
2022-10-25T13:17:48.381Z,15.90
2022-10-25T13:20:48.582Z,15.80
2022-10-25T13:24:00.420Z,15.70
2022-10-25T13:26:54.333Z,15.60
2022-10-25T13:29:47.786Z,15.60
2022-10-25T13:32:23.036Z,15.70
2022-10-25T13:34:51.194Z,15.70
2022-10-25T13:37:45.562Z,15.70
2022-10-25T13:40:28.478Z,15.70
2022-10-25T13:43:02.867Z,15.70
2022-10-25T13:45:38.816Z,15.60
2022-10-25T13:48:29.684Z,15.60
2022-10-25T13:51:00.629Z,15.60
2022-10-25T13:53:37.761Z,15.60
2022-10-25T13:56:08.323Z,15.50
2022-10-25T13:58:48.680Z,15.50
2022-10-25T14:01:54.532Z,15.50
2022-10-25T14:04:35.243Z,15.40
2022-10-25T14:07:40.779Z,15.40
2022-10-25T14:10:16.997Z,15.30
2022-10-25T14:12:49.587Z,15.20
2022-10-25T14:15:25.664Z,15.20
2022-10-25T14:17:54.510Z,15.10
2022-10-25T14:20:28.803Z,15.00
2022-10-25T14:23:01.753Z,15.00
2022-10-25T14:25:35.423Z,14.90
2022-10-25T14:28:09.075Z,14.90
2022-10-25T14:30:41.158Z,14.80
2022-10-25T14:33:32.262Z,14.70
2022-10-25T14:36:11.882Z,14.70
2022-10-25T14:38:54.101Z,14.60
2022-10-25T14:41:24.551Z,14.60
2022-10-25T14:43:53.385Z,14.60
2022-10-25T14:46:22.869Z,14.60
2022-10-25T14:48:55.247Z,14.60
2022-10-25T14:51:28.141Z,14.60
2022-10-25T14:53:59.781Z,14.60
2022-10-25T14:56:31.398Z,14.50
2022-10-25T14:59:00.894Z,14.50
2022-10-25T15:01:29.682Z,14.50
2022-10-25T15:04:01.347Z,14.40
2022-10-25T15:06:33.346Z,14.40
2022-10-25T15:12:09.056Z,14.40
2022-10-25T15:14:37.646Z,14.40
2022-10-25T15:17:06.698Z,14.40
2022-10-25T15:22:31.724Z,14.20
2022-10-25T15:24:59.957Z,14.10
2022-10-25T15:27:35.219Z,14.10
2022-10-25T15:30:05.045Z,14.00
2022-10-25T15:32:34.328Z,14.00
2022-10-25T15:35:04.064Z,13.90
2022-10-25T15:37:33.598Z,13.90
2022-10-25T15:40:01.797Z,13.80
2022-10-25T15:42:30.014Z,13.80
2022-10-25T15:44:58.402Z,13.80
2022-10-25T15:47:32.266Z,13.80
2022-10-25T15:50:02.943Z,13.80
2022-10-25T15:52:31.260Z,13.70
2022-10-25T15:55:00.868Z,13.70
2022-10-25T15:57:29.156Z,13.80
2022-10-25T15:59:57.346Z,13.80
2022-10-25T16:02:28.668Z,13.80
2022-10-25T16:04:56.940Z,13.90
2022-10-25T16:07:25.308Z,13.90
2022-10-25T16:09:53.448Z,13.80
2022-10-25T16:12:28.442Z,13.80
2022-10-25T16:14:56.658Z,13.80
2022-10-25T16:17:24.785Z,13.80
2022-10-25T16:19:53.028Z,13.80
2022-10-25T16:22:21.150Z,13.70
2022-10-25T16:24:49.291Z,13.70
2022-10-25T16:27:17.590Z,13.60
2022-10-25T16:29:47.204Z,13.60
2022-10-25T16:32:15.379Z,13.60
2022-10-25T16:34:46.042Z,13.50
2022-10-25T16:37:14.213Z,13.50
2022-10-25T16:39:42.369Z,13.40
2022-10-25T16:42:28.940Z,13.40
2022-10-25T16:44:59.326Z,13.40
2022-10-25T16:47:27.689Z,13.40
2022-10-25T16:49:56.135Z,13.40
2022-10-25T16:52:24.265Z,13.40
2022-10-25T16:54:52.500Z,13.40
2022-10-25T16:57:20.614Z,13.40
2022-10-25T16:59:48.866Z,13.40
2022-10-25T17:02:21.026Z,13.30
2022-10-25T17:04:50.268Z,13.40
2022-10-25T17:07:18.785Z,13.40
2022-10-25T17:09:49.424Z,13.40
2022-10-25T17:12:17.633Z,13.40
2022-10-25T17:14:45.868Z,13.40
2022-10-25T17:17:15.240Z,13.30
2022-10-25T17:19:44.804Z,13.30
2022-10-25T17:22:12.927Z,13.30
2022-10-25T17:24:41.030Z,13.30
2022-10-25T17:27:09.260Z,13.30
2022-10-25T17:29:37.412Z,13.30
2022-10-25T17:32:06.012Z,13.30
2022-10-25T17:34:34.190Z,13.30
2022-10-25T17:37:03.872Z,13.30
2022-10-25T17:39:32.090Z,13.20
2022-10-25T17:42:00.396Z,13.30
2022-10-25T17:44:28.562Z,13.20
2022-10-25T17:46:58.481Z,13.20
2022-10-25T17:49:29.270Z,13.20
2022-10-25T17:51:57.421Z,13.20
2022-10-25T17:54:27.223Z,13.20
2022-10-25T17:56:58.615Z,13.20
2022-10-25T17:59:35.848Z,13.20
2022-10-25T18:02:04.563Z,13.20
2022-10-25T18:04:46.901Z,13.20
2022-10-25T18:07:24.010Z,13.20
2022-10-25T18:09:53.655Z,13.20
2022-10-25T18:12:21.870Z,13.20
2022-10-25T18:14:55.455Z,13.20
2022-10-25T18:17:28.712Z,13.30
2022-10-25T18:19:56.881Z,13.30
2022-10-25T18:22:25.184Z,13.30
2022-10-25T18:24:54.999Z,13.30
2022-10-25T18:27:23.346Z,13.30
2022-10-25T18:29:51.536Z,13.30
2022-10-25T18:32:19.860Z,13.20
2022-10-25T18:34:48.109Z,13.20
2022-10-25T18:37:16.321Z,13.20
2022-10-25T18:39:44.494Z,13.20
2022-10-25T18:42:14.077Z,13.20
2022-10-25T18:44:43.083Z,13.20
2022-10-25T18:47:11.494Z,13.10
2022-10-25T18:49:40.102Z,13.10
2022-10-25T18:52:09.238Z,13.10
2022-10-25T18:54:37.509Z,13.20
2022-10-25T18:57:05.946Z,13.20
2022-10-25T18:59:35.623Z,13.20
2022-10-25T19:02:03.980Z,13.20
2022-10-25T19:04:32.303Z,13.10
2022-10-25T19:07:00.525Z,13.10
2022-10-25T19:09:28.786Z,13.10
2022-10-25T19:11:57.127Z,13.10
2022-10-25T19:14:25.452Z,13.10
2022-10-25T19:16:56.174Z,13.10
2022-10-25T19:19:25.065Z,13.10
2022-10-25T19:21:53.338Z,13.00
2022-10-25T19:24:46.587Z,13.00
2022-10-25T19:27:14.854Z,13.00
2022-10-25T19:29:44.159Z,13.00
2022-10-25T19:32:13.873Z,13.00
2022-10-25T19:34:42.271Z,13.00
2022-10-25T19:37:11.297Z,13.00
2022-10-25T19:39:40.844Z,13.70
2022-10-25T19:42:11.438Z,12.90
2022-10-25T19:44:39.732Z,12.90
2022-10-25T19:47:11.482Z,12.90
2022-10-25T19:49:41.158Z,12.90
2022-10-25T19:52:09.450Z,12.90
2022-10-25T19:54:37.801Z,12.90
2022-10-25T19:57:06.493Z,12.90
2022-10-25T19:59:34.853Z,12.90
2022-10-25T20:02:03.844Z,12.90
2022-10-25T20:04:39.526Z,12.90
2022-10-25T20:07:09.441Z,12.90
2022-10-25T20:09:39.981Z,12.90
2022-10-25T20:12:11.053Z,12.90
2022-10-25T20:14:39.310Z,12.90
2022-10-25T20:17:08.780Z,12.90
2022-10-25T20:19:37.023Z,12.90
2022-10-25T20:22:06.162Z,12.90
2022-10-25T20:24:35.840Z,12.90
2022-10-25T20:27:04.059Z,12.90
2022-10-25T20:29:32.262Z,12.90
2022-10-25T20:32:00.497Z,12.80
2022-10-25T20:34:28.684Z,12.80
2022-10-25T20:36:56.817Z,12.80
2022-10-25T20:39:25.007Z,12.80
2022-10-25T20:41:54.639Z,12.70
2022-10-25T20:44:23.622Z,12.70
2022-10-25T20:46:51.808Z,12.60
2022-10-25T20:49:21.186Z,12.60
2022-10-25T20:51:49.808Z,12.60
2022-10-25T20:54:18.060Z,12.60
2022-10-25T20:56:46.213Z,12.60
2022-10-25T20:59:15.769Z,12.60
2022-10-25T21:01:44.162Z,12.60
2022-10-25T21:04:14.339Z,12.60
2022-10-25T21:06:44.415Z,12.60
2022-10-25T21:09:12.586Z,12.60
2022-10-25T21:11:40.722Z,12.50
2022-10-25T21:14:11.551Z,12.50
2022-10-25T21:16:41.114Z,12.50
2022-10-25T21:19:09.407Z,12.50
2022-10-25T21:21:37.717Z,12.50
2022-10-25T21:24:06.240Z,12.60
2022-10-25T21:26:34.763Z,12.60
2022-10-25T21:29:03.289Z,12.60
2022-10-25T21:31:31.498Z,12.60
2022-10-25T21:34:01.232Z,12.60
2022-10-25T21:36:29.468Z,12.60
2022-10-25T21:38:57.997Z,12.70
2022-10-25T21:41:27.594Z,12.70
2022-10-25T21:43:56.946Z,12.70
2022-10-25T21:46:27.308Z,12.60
2022-10-25T21:48:55.964Z,12.60
2022-10-25T21:51:25.839Z,12.60
2022-10-25T21:53:54.847Z,12.60
2022-10-25T21:56:30.695Z,12.60
2022-10-25T21:59:00.706Z,12.60
2022-10-25T22:01:30.966Z,12.60
2022-10-25T22:03:59.371Z,12.60
2022-10-25T22:06:29.417Z,12.60
2022-10-25T22:08:58.251Z,12.50
2022-10-25T22:11:27.992Z,12.60
2022-10-25T22:13:57.192Z,12.60
2022-10-25T22:16:26.079Z,12.50
2022-10-25T22:18:57.719Z,12.50
2022-10-25T22:21:28.951Z,12.50
2022-10-25T22:23:57.296Z,12.50
2022-10-25T22:26:25.646Z,12.50
2022-10-25T22:28:54.585Z,12.40
2022-10-25T22:31:23.487Z,12.40
2022-10-25T22:33:54.918Z,12.30
2022-10-25T22:36:24.571Z,12.30
2022-10-25T22:38:54.480Z,12.30
2022-10-25T22:41:25.032Z,12.20
2022-10-25T22:43:53.338Z,12.20
2022-10-25T22:46:25.189Z,12.10
2022-10-25T22:48:55.207Z,12.00
2022-10-25T22:51:24.408Z,12.00
2022-10-25T22:53:54.159Z,11.90
2022-10-25T22:56:23.874Z,11.90
2022-10-25T22:58:53.791Z,11.80
2022-10-25T23:01:24.172Z,11.80
2022-10-25T23:03:54.506Z,11.80
2022-10-25T23:06:25.006Z,11.80
2022-10-25T23:08:55.402Z,11.80
2022-10-25T23:11:25.514Z,11.70
2022-10-25T23:13:54.017Z,11.70
2022-10-25T23:16:22.270Z,11.70
2022-10-25T23:18:51.015Z,11.70
2022-10-25T23:21:20.834Z,11.80
2022-10-25T23:23:49.272Z,11.80
2022-10-25T23:26:23.484Z,11.80
2022-10-25T23:28:52.170Z,11.80
2022-10-25T23:31:20.570Z,11.70
2022-10-25T23:33:52.334Z,11.70
2022-10-25T23:36:22.154Z,11.70
2022-10-25T23:38:52.206Z,11.70
2022-10-25T23:41:22.914Z,11.70
2022-10-25T23:43:51.421Z,11.70
2022-10-25T23:46:20.130Z,11.70
2022-10-25T23:48:48.872Z,11.70
2022-10-25T23:51:19.356Z,11.70
2022-10-25T23:53:48.653Z,11.70
2022-10-25T23:56:17.224Z,11.70
2022-10-25T23:58:50.521Z,11.80
